sensor_id;sensor_type;location;lat;lon;timestamp;pressure;altitude;pressure_sealevel;temperature;humidity
68712;BME280;55690;51.566;19.198;2023-08-12T00:03:46;102351.50;;;15.26;93.30
68712;BME280;55690;51.566;19.198;2023-08-12T00:07:52;102343.52;;;15.23;94.02
68712;BME280;55690;51.566;19.198;2023-08-12T00:11:58;102350.83;;;15.22;94.07
68712;BME280;55690;51.566;19.198;2023-08-12T00:16:04;102349.54;;;15.28;93.41
68712;BME280;55690;51.566;19.198;2023-08-12T00:20:11;102353.26;;;15.27;93.76
68712;BME280;55690;51.566;19.198;2023-08-12T00:24:17;102359.25;;;15.19;94.53
68712;BME280;55690;51.566;19.198;2023-08-12T00:28:23;102354.12;;;15.15;93.86
68712;BME280;55690;51.566;19.198;2023-08-12T00:32:29;102355.00;;;15.15;93.86
68712;BME280;55690;51.566;19.198;2023-08-12T00:36:35;102357.94;;;15.12;94.02
68712;BME280;55690;51.566;19.198;2023-08-12T00:40:41;102352.51;;;14.98;94.54
68712;BME280;55690;51.566;19.198;2023-08-12T00:44:48;102353.39;;;14.98;93.86
68712;BME280;55690;51.566;19.198;2023-08-12T00:48:54;102344.87;;;15.03;93.55
68712;BME280;55690;51.566;19.198;2023-08-12T00:53:00;102346.16;;;14.97;94.63
68712;BME280;55690;51.566;19.198;2023-08-12T00:57:06;102344.41;;;14.96;94.65
68712;BME280;55690;51.566;19.198;2023-08-12T01:01:12;102338.46;;;14.90;94.85
68712;BME280;55690;51.566;19.198;2023-08-12T01:05:18;102342.38;;;14.86;94.74
68712;BME280;55690;51.566;19.198;2023-08-12T01:09:25;102345.89;;;14.88;94.86
68712;BME280;55690;51.566;19.198;2023-08-12T01:17:45;102341.80;;;14.81;94.92
68712;BME280;55690;51.566;19.198;2023-08-12T01:21:53;102344.65;;;14.79;94.97
68712;BME280;55690;51.566;19.198;2023-08-12T01:25:55;102337.79;;;14.86;94.08
68712;BME280;55690;51.566;19.198;2023-08-12T01:29:57;102333.97;;;14.89;93.31
68712;BME280;55690;51.566;19.198;2023-08-12T01:38:18;102344.06;;;14.74;94.71
68712;BME280;55690;51.566;19.198;2023-08-12T01:42:20;102350.52;;;14.73;93.78
68712;BME280;55690;51.566;19.198;2023-08-12T01:46:22;102343.41;;;14.71;94.19
68712;BME280;55690;51.566;19.198;2023-08-12T01:50:26;102347.42;;;14.65;94.52
68712;BME280;55690;51.566;19.198;2023-08-12T01:54:33;102343.91;;;14.63;93.74
68712;BME280;55690;51.566;19.198;2023-08-12T01:58:39;102349.01;;;14.55;94.17
68712;BME280;55690;51.566;19.198;2023-08-12T02:02:45;102357.59;;;14.49;95.51
68712;BME280;55690;51.566;19.198;2023-08-12T02:06:51;102357.18;;;14.41;95.74
68712;BME280;55690;51.566;19.198;2023-08-12T02:10:58;102354.06;;;14.32;94.89
68712;BME280;55690;51.566;19.198;2023-08-12T02:15:05;102343.91;;;14.35;94.50
68712;BME280;55690;51.566;19.198;2023-08-12T02:19:10;102343.93;;;14.06;95.71
68712;BME280;55690;51.566;19.198;2023-08-12T02:23:16;102340.20;;;13.93;96.57
68712;BME280;55690;51.566;19.198;2023-08-12T02:27:23;102335.33;;;13.98;96.51
68712;BME280;55690;51.566;19.198;2023-08-12T02:31:29;102336.09;;;13.72;97.70
68712;BME280;55690;51.566;19.198;2023-08-12T02:35:35;102321.88;;;13.81;96.94
68712;BME280;55690;51.566;19.198;2023-08-12T02:39:41;102316.23;;;13.84;97.12
68712;BME280;55690;51.566;19.198;2023-08-12T02:43:47;102317.01;;;13.86;96.14
68712;BME280;55690;51.566;19.198;2023-08-12T02:47:53;102317.66;;;13.89;95.96
68712;BME280;55690;51.566;19.198;2023-08-12T02:51:59;102323.83;;;13.79;97.17
68712;BME280;55690;51.566;19.198;2023-08-12T02:56:06;102322.45;;;13.72;97.11
68712;BME280;55690;51.566;19.198;2023-08-12T03:00:13;102331.04;;;13.80;96.30
68712;BME280;55690;51.566;19.198;2023-08-12T03:04:18;102332.70;;;13.82;96.81
68712;BME280;55690;51.566;19.198;2023-08-12T03:08:24;102336.31;;;13.83;96.35
68712;BME280;55690;51.566;19.198;2023-08-12T03:12:30;102324.60;;;13.95;95.87
68712;BME280;55690;51.566;19.198;2023-08-12T03:16:36;102319.42;;;13.90;96.05
68712;BME280;55690;51.566;19.198;2023-08-12T03:20:43;102321.88;;;13.81;97.28
68712;BME280;55690;51.566;19.198;2023-08-12T03:24:49;102324.79;;;13.92;96.87
68712;BME280;55690;51.566;19.198;2023-08-12T03:28:55;102337.09;;;13.85;96.72
68712;BME280;55690;51.566;19.198;2023-08-12T03:33:01;102333.95;;;13.91;96.71
68712;BME280;55690;51.566;19.198;2023-08-12T03:37:07;102330.65;;;14.00;96.51
68712;BME280;55690;51.566;19.198;2023-08-12T03:41:13;102338.48;;;14.20;96.23
68712;BME280;55690;51.566;19.198;2023-08-12T03:45:20;102335.53;;;14.09;96.16
68712;BME280;55690;51.566;19.198;2023-08-12T03:49:26;102329.00;;;14.12;96.32
68712;BME280;55690;51.566;19.198;2023-08-12T03:53:32;102320.03;;;14.10;95.83
68712;BME280;55690;51.566;19.198;2023-08-12T03:57:38;102317.97;;;13.99;96.24
68712;BME280;55690;51.566;19.198;2023-08-12T04:01:44;102329.78;;;14.14;95.79
68712;BME280;55690;51.566;19.198;2023-08-12T04:05:51;102334.38;;;14.27;95.04
68712;BME280;55690;51.566;19.198;2023-08-12T04:09:57;102322.23;;;14.31;96.26
68712;BME280;55690;51.566;19.198;2023-08-12T04:14:03;102324.97;;;14.31;96.61
68712;BME280;55690;51.566;19.198;2023-08-12T04:18:09;102323.34;;;14.43;95.07
68712;BME280;55690;51.566;19.198;2023-08-12T04:22:15;102328.88;;;14.56;95.16
68712;BME280;55690;51.566;19.198;2023-08-12T04:26:21;102315.70;;;14.62;95.34
68712;BME280;55690;51.566;19.198;2023-08-12T04:30:28;102324.82;;;14.76;95.12
68712;BME280;55690;51.566;19.198;2023-08-12T04:34:34;102322.11;;;15.03;94.81
68712;BME280;55690;51.566;19.198;2023-08-12T04:38:40;102315.62;;;15.30;94.42
68712;BME280;55690;51.566;19.198;2023-08-12T04:42:46;102314.24;;;15.50;93.32
68712;BME280;55690;51.566;19.198;2023-08-12T04:46:52;102316.26;;;15.74;93.87
68712;BME280;55690;51.566;19.198;2023-08-12T04:50:58;102320.64;;;15.76;93.48
68712;BME280;55690;51.566;19.198;2023-08-12T04:55:08;102317.48;;;15.95;93.89
68712;BME280;55690;51.566;19.198;2023-08-12T04:59:11;102315.27;;;16.13;93.60
68712;BME280;55690;51.566;19.198;2023-08-12T05:03:17;102315.36;;;16.37;93.57
68712;BME280;55690;51.566;19.198;2023-08-12T05:07:23;102311.00;;;16.58;93.14
68712;BME280;55690;51.566;19.198;2023-08-12T05:11:29;102308.80;;;16.76;92.60
68712;BME280;55690;51.566;19.198;2023-08-12T05:15:35;102313.25;;;16.89;92.88
68712;BME280;55690;51.566;19.198;2023-08-12T05:19:42;102321.05;;;17.07;92.83
68712;BME280;55690;51.566;19.198;2023-08-12T05:23:48;102311.30;;;17.26;91.94
68712;BME280;55690;51.566;19.198;2023-08-12T05:27:54;102313.99;;;17.50;92.84
68712;BME280;55690;51.566;19.198;2023-08-12T05:32:00;102311.70;;;17.68;93.70
68712;BME280;55690;51.566;19.198;2023-08-12T05:36:06;102309.50;;;17.95;92.46
68712;BME280;55690;51.566;19.198;2023-08-12T05:40:13;102314.26;;;18.05;91.46
68712;BME280;55690;51.566;19.198;2023-08-12T05:44:19;102316.38;;;18.46;91.33
68712;BME280;55690;51.566;19.198;2023-08-12T05:48:25;102309.22;;;18.77;89.62
68712;BME280;55690;51.566;19.198;2023-08-12T05:52:31;102307.85;;;19.14;87.04
68712;BME280;55690;51.566;19.198;2023-08-12T05:56:37;102297.30;;;19.51;84.79
68712;BME280;55690;51.566;19.198;2023-08-12T06:00:43;102294.96;;;19.68;83.68
68712;BME280;55690;51.566;19.198;2023-08-12T06:04:49;102295.40;;;19.93;83.36
68712;BME280;55690;51.566;19.198;2023-08-12T06:08:55;102289.82;;;20.35;82.33
68712;BME280;55690;51.566;19.198;2023-08-12T06:13:02;102294.73;;;20.81;80.05
68712;BME280;55690;51.566;19.198;2023-08-12T06:17:08;102286.95;;;21.25;79.28
68712;BME280;55690;51.566;19.198;2023-08-12T06:21:14;102294.77;;;21.68;78.44
68712;BME280;55690;51.566;19.198;2023-08-12T06:25:20;102290.66;;;22.01;76.65
68712;BME280;55690;51.566;19.198;2023-08-12T06:29:26;102291.89;;;22.16;73.58
68712;BME280;55690;51.566;19.198;2023-08-12T06:33:33;102296.15;;;22.48;72.99
68712;BME280;55690;51.566;19.198;2023-08-12T06:37:39;102298.81;;;22.95;72.21
68712;BME280;55690;51.566;19.198;2023-08-12T06:41:45;102288.44;;;23.14;69.71
68712;BME280;55690;51.566;19.198;2023-08-12T06:45:51;102291.77;;;23.36;68.40
68712;BME280;55690;51.566;19.198;2023-08-12T06:49:57;102282.79;;;23.77;68.79
68712;BME280;55690;51.566;19.198;2023-08-12T06:54:04;102282.30;;;23.46;66.92
68712;BME280;55690;51.566;19.198;2023-08-12T06:58:09;102271.71;;;24.11;68.91
68712;BME280;55690;51.566;19.198;2023-08-12T07:02:16;102273.06;;;24.33;68.56
68712;BME280;55690;51.566;19.198;2023-08-12T07:06:22;102280.09;;;24.19;66.03
68712;BME280;55690;51.566;19.198;2023-08-12T07:10:28;102272.67;;;24.70;67.19
68712;BME280;55690;51.566;19.198;2023-08-12T07:14:34;102266.02;;;24.97;66.58
68712;BME280;55690;51.566;19.198;2023-08-12T07:18:40;102269.59;;;24.81;65.03
68712;BME280;55690;51.566;19.198;2023-08-12T07:22:46;102267.54;;;24.92;64.30
68712;BME280;55690;51.566;19.198;2023-08-12T07:26:53;102259.97;;;25.34;64.09
68712;BME280;55690;51.566;19.198;2023-08-12T07:31:01;102255.96;;;25.29;62.32
68712;BME280;55690;51.566;19.198;2023-08-12T07:35:06;102254.24;;;25.52;63.57
68712;BME280;55690;51.566;19.198;2023-08-12T07:39:11;102261.02;;;25.41;64.13
68712;BME280;55690;51.566;19.198;2023-08-12T07:43:17;102255.79;;;25.30;62.19
68712;BME280;55690;51.566;19.198;2023-08-12T07:47:23;102257.88;;;25.69;64.14
68712;BME280;55690;51.566;19.198;2023-08-12T07:51:30;102261.29;;;26.03;62.54
68712;BME280;55690;51.566;19.198;2023-08-12T07:55:36;102247.08;;;25.90;65.85
68712;BME280;55690;51.566;19.198;2023-08-12T07:59:42;102255.20;;;26.00;63.19
68712;BME280;55690;51.566;19.198;2023-08-12T08:03:48;102246.45;;;26.19;62.39
68712;BME280;55690;51.566;19.198;2023-08-12T08:07:54;102243.01;;;26.09;62.81
68712;BME280;55690;51.566;19.198;2023-08-12T08:12:00;102239.38;;;26.00;60.94
68712;BME280;55690;51.566;19.198;2023-08-12T08:16:07;102234.37;;;25.96;60.41
68712;BME280;55690;51.566;19.198;2023-08-12T08:20:13;102242.65;;;26.12;62.53
68712;BME280;55690;51.566;19.198;2023-08-12T08:24:19;102242.42;;;26.30;62.09
68712;BME280;55690;51.566;19.198;2023-08-12T08:28:25;102247.13;;;26.68;62.82
68712;BME280;55690;51.566;19.198;2023-08-12T08:32:31;102249.78;;;26.62;62.88
68712;BME280;55690;51.566;19.198;2023-08-12T08:36:37;102235.12;;;26.29;59.57
68712;BME280;55690;51.566;19.198;2023-08-12T08:40:43;102240.57;;;26.06;62.30
68712;BME280;55690;51.566;19.198;2023-08-12T08:44:52;102228.22;;;26.08;59.98
68712;BME280;55690;51.566;19.198;2023-08-12T08:48:59;102238.77;;;26.29;60.12
68712;BME280;55690;51.566;19.198;2023-08-12T08:53:04;102227.90;;;26.81;62.37
68712;BME280;55690;51.566;19.198;2023-08-12T08:57:08;102219.95;;;26.70;59.71
68712;BME280;55690;51.566;19.198;2023-08-12T09:01:15;102224.84;;;26.91;59.92
68712;BME280;55690;51.566;19.198;2023-08-12T09:05:21;102226.58;;;26.38;59.20
68712;BME280;55690;51.566;19.198;2023-08-12T09:09:27;102223.34;;;27.11;62.60
68712;BME280;55690;51.566;19.198;2023-08-12T09:13:33;102222.56;;;26.72;59.74
68712;BME280;55690;51.566;19.198;2023-08-12T09:17:39;102209.48;;;26.72;59.17
68712;BME280;55690;51.566;19.198;2023-08-12T09:21:53;102206.21;;;27.37;60.31
68712;BME280;55690;51.566;19.198;2023-08-12T09:25:57;102203.89;;;27.26;58.81
68712;BME280;55690;51.566;19.198;2023-08-12T09:30:02;102192.56;;;27.42;59.68
68712;BME280;55690;51.566;19.198;2023-08-12T09:34:06;102195.70;;;27.25;59.87
68712;BME280;55690;51.566;19.198;2023-08-12T09:38:13;102192.56;;;27.42;58.41
68712;BME280;55690;51.566;19.198;2023-08-12T09:42:17;102185.05;;;27.43;58.97
68712;BME280;55690;51.566;19.198;2023-08-12T09:46:23;102175.32;;;28.06;58.13
68712;BME280;55690;51.566;19.198;2023-08-12T09:50:29;102173.67;;;27.82;58.56
68712;BME280;55690;51.566;19.198;2023-08-12T09:54:35;102161.06;;;28.15;58.71
68712;BME280;55690;51.566;19.198;2023-08-12T09:58:41;102163.84;;;28.30;60.62
68712;BME280;55690;51.566;19.198;2023-08-12T10:02:50;102155.27;;;28.32;57.06
68712;BME280;55690;51.566;19.198;2023-08-12T10:06:55;102155.56;;;28.22;58.14
68712;BME280;55690;51.566;19.198;2023-08-12T10:10:59;102155.51;;;28.52;58.91
68712;BME280;55690;51.566;19.198;2023-08-12T10:15:06;102147.99;;;28.73;60.70
68712;BME280;55690;51.566;19.198;2023-08-12T10:19:12;102156.29;;;28.82;59.47
68712;BME280;55690;51.566;19.198;2023-08-12T10:23:17;102139.81;;;29.14;60.38
68712;BME280;55690;51.566;19.198;2023-08-12T10:27:23;102136.26;;;28.99;57.24
68712;BME280;55690;51.566;19.198;2023-08-12T10:31:30;102146.17;;;29.02;58.22
68712;BME280;55690;51.566;19.198;2023-08-12T10:35:46;102142.17;;;28.90;57.46
68712;BME280;55690;51.566;19.198;2023-08-12T10:39:48;102139.60;;;29.16;56.39
68712;BME280;55690;51.566;19.198;2023-08-12T10:48:16;102140.25;;;28.90;55.67
68712;BME280;55690;51.566;19.198;2023-08-12T10:52:26;102133.41;;;29.21;56.98
68712;BME280;55690;51.566;19.198;2023-08-12T10:56:29;102132.89;;;29.10;57.68
68712;BME280;55690;51.566;19.198;2023-08-12T11:00:31;102119.44;;;29.49;55.51
68712;BME280;55690;51.566;19.198;2023-08-12T11:04:38;102111.48;;;29.52;55.90
68712;BME280;55690;51.566;19.198;2023-08-12T11:12:57;102101.37;;;29.92;55.14
68712;BME280;55690;51.566;19.198;2023-08-12T11:16:58;102106.01;;;30.06;55.04
68712;BME280;55690;51.566;19.198;2023-08-12T11:21:00;102103.35;;;29.98;54.28
68712;BME280;55690;51.566;19.198;2023-08-12T11:25:04;102106.24;;;30.11;55.80
68712;BME280;55690;51.566;19.198;2023-08-12T11:29:11;102094.77;;;30.00;54.27
68712;BME280;55690;51.566;19.198;2023-08-12T11:33:16;102096.97;;;30.11;55.72
68712;BME280;55690;51.566;19.198;2023-08-12T11:37:23;102090.20;;;29.99;54.84
68712;BME280;55690;51.566;19.198;2023-08-12T11:41:24;102082.17;;;30.37;54.64
68712;BME280;55690;51.566;19.198;2023-08-12T11:45:26;102072.09;;;29.88;55.31
68712;BME280;55690;51.566;19.198;2023-08-12T11:49:29;102066.45;;;30.29;55.80
68712;BME280;55690;51.566;19.198;2023-08-12T11:53:33;102057.02;;;30.57;53.90
68712;BME280;55690;51.566;19.198;2023-08-12T11:57:43;102051.33;;;30.24;53.23
68712;BME280;55690;51.566;19.198;2023-08-12T12:01:51;102055.87;;;30.25;52.86
68712;BME280;55690;51.566;19.198;2023-08-12T12:05:55;102064.24;;;30.18;54.42
68712;BME280;55690;51.566;19.198;2023-08-12T12:09:57;102057.38;;;30.40;54.29
68712;BME280;55690;51.566;19.198;2023-08-12T12:14:04;102056.48;;;30.20;54.15
68712;BME280;55690;51.566;19.198;2023-08-12T12:18:11;102050.08;;;30.53;53.35
68712;BME280;55690;51.566;19.198;2023-08-12T12:22:16;102052.74;;;30.74;53.65
68712;BME280;55690;51.566;19.198;2023-08-12T12:26:22;102045.39;;;30.66;53.03
68712;BME280;55690;51.566;19.198;2023-08-12T12:30:28;102042.79;;;30.98;54.07
68712;BME280;55690;51.566;19.198;2023-08-12T12:34:34;102019.69;;;31.09;53.43
68712;BME280;55690;51.566;19.198;2023-08-12T12:38:41;102025.12;;;31.17;53.39
68712;BME280;55690;51.566;19.198;2023-08-12T12:42:49;102015.60;;;31.05;51.83
68712;BME280;55690;51.566;19.198;2023-08-12T12:46:52;102012.15;;;31.03;53.02
68712;BME280;55690;51.566;19.198;2023-08-12T12:50:59;102000.50;;;30.80;52.60
68712;BME280;55690;51.566;19.198;2023-08-12T12:55:06;101986.26;;;31.01;53.42
68712;BME280;55690;51.566;19.198;2023-08-12T12:59:11;101991.87;;;30.88;52.46
68712;BME280;55690;51.566;19.198;2023-08-12T13:03:17;101989.69;;;31.09;53.45
68712;BME280;55690;51.566;19.198;2023-08-12T13:07:23;101987.98;;;30.95;53.24
68712;BME280;55690;51.566;19.198;2023-08-12T13:11:32;101986.58;;;31.51;53.70
68712;BME280;55690;51.566;19.198;2023-08-12T13:15:39;101985.36;;;31.20;52.21
68712;BME280;55690;51.566;19.198;2023-08-12T13:19:42;101978.47;;;31.09;53.08
68712;BME280;55690;51.566;19.198;2023-08-12T13:23:48;101987.11;;;31.08;52.57
68712;BME280;55690;51.566;19.198;2023-08-12T13:27:54;101984.35;;;30.68;53.54
68712;BME280;55690;51.566;19.198;2023-08-12T13:32:01;101982.83;;;30.59;53.16
68712;BME280;55690;51.566;19.198;2023-08-12T13:36:06;101981.94;;;30.52;53.42
68712;BME280;55690;51.566;19.198;2023-08-12T13:40:13;101971.14;;;31.02;54.48
68712;BME280;55690;51.566;19.198;2023-08-12T13:44:19;101970.23;;;31.28;55.15
68712;BME280;55690;51.566;19.198;2023-08-12T13:48:25;101966.67;;;30.74;52.92
68712;BME280;55690;51.566;19.198;2023-08-12T13:52:31;101959.69;;;31.10;53.87
68712;BME280;55690;51.566;19.198;2023-08-12T13:56:37;101959.92;;;30.95;53.98
68712;BME280;55690;51.566;19.198;2023-08-12T14:00:43;101953.45;;;30.95;53.12
68712;BME280;55690;51.566;19.198;2023-08-12T14:04:49;101950.21;;;31.04;53.94
68712;BME280;55690;51.566;19.198;2023-08-12T14:08:55;101946.98;;;30.94;53.78
68712;BME280;55690;51.566;19.198;2023-08-12T14:13:02;101938.55;;;31.01;52.99
68712;BME280;55690;51.566;19.198;2023-08-12T14:17:08;101936.57;;;31.21;53.96
68712;BME280;55690;51.566;19.198;2023-08-12T14:21:17;101935.13;;;30.86;52.56
68712;BME280;55690;51.566;19.198;2023-08-12T14:25:20;101930.59;;;30.85;54.46
68712;BME280;55690;51.566;19.198;2023-08-12T14:29:26;101925.04;;;30.71;54.58
68712;BME280;55690;51.566;19.198;2023-08-12T14:33:33;101923.70;;;30.08;53.28
68712;BME280;55690;51.566;19.198;2023-08-12T14:37:39;101926.09;;;30.18;54.34
68712;BME280;55690;51.566;19.198;2023-08-12T14:41:45;101919.83;;;30.35;54.37
68712;BME280;55690;51.566;19.198;2023-08-12T14:45:51;101916.37;;;30.00;54.27
68712;BME280;55690;51.566;19.198;2023-08-12T14:49:57;101918.48;;;29.85;54.66
68712;BME280;55690;51.566;19.198;2023-08-12T14:54:04;101908.75;;;29.74;57.13
68712;BME280;55690;51.566;19.198;2023-08-12T14:58:09;101909.34;;;29.57;56.64
68712;BME280;55690;51.566;19.198;2023-08-12T15:02:16;101894.82;;;29.33;55.55
68712;BME280;55690;51.566;19.198;2023-08-12T15:06:22;101903.59;;;29.24;55.93
68712;BME280;55690;51.566;19.198;2023-08-12T15:10:28;101894.60;;;29.35;55.02
68712;BME280;55690;51.566;19.198;2023-08-12T15:14:34;101894.02;;;29.05;54.65
68712;BME280;55690;51.566;19.198;2023-08-12T15:18:41;101891.13;;;28.85;56.92
68712;BME280;55690;51.566;19.198;2023-08-12T15:22:47;101885.09;;;28.82;57.26
68712;BME280;55690;51.566;19.198;2023-08-12T15:26:53;101880.03;;;28.70;55.31
68712;BME280;55690;51.566;19.198;2023-08-12T15:30:59;101879.63;;;28.73;56.32
68712;BME280;55690;51.566;19.198;2023-08-12T15:35:06;101871.65;;;28.70;55.63
68712;BME280;55690;51.566;19.198;2023-08-12T15:39:11;101876.06;;;28.52;57.53
68712;BME280;55690;51.566;19.198;2023-08-12T15:43:17;101872.89;;;28.33;56.88
68712;BME280;55690;51.566;19.198;2023-08-12T15:47:27;101867.26;;;28.27;56.10
68712;BME280;55690;51.566;19.198;2023-08-12T15:51:30;101867.05;;;28.28;58.54
68712;BME280;55690;51.566;19.198;2023-08-12T15:55:36;101859.59;;;28.35;57.50
68712;BME280;55690;51.566;19.198;2023-08-12T15:59:42;101871.31;;;28.24;57.13
68712;BME280;55690;51.566;19.198;2023-08-12T16:03:51;101865.00;;;28.15;58.57
68712;BME280;55690;51.566;19.198;2023-08-12T16:07:54;101867.01;;;28.00;60.25
68712;BME280;55690;51.566;19.198;2023-08-12T16:12:01;101869.66;;;27.87;59.66
68712;BME280;55690;51.566;19.198;2023-08-12T16:16:07;101864.16;;;27.72;59.46
68712;BME280;55690;51.566;19.198;2023-08-12T16:20:13;101860.52;;;27.72;60.42
68712;BME280;55690;51.566;19.198;2023-08-12T16:24:19;101867.96;;;27.50;62.55
68712;BME280;55690;51.566;19.198;2023-08-12T16:28:25;101861.76;;;27.33;63.54
68712;BME280;55690;51.566;19.198;2023-08-12T16:32:34;101855.65;;;27.23;62.94
68712;BME280;55690;51.566;19.198;2023-08-12T16:36:41;101856.31;;;27.25;61.34
68712;BME280;55690;51.566;19.198;2023-08-12T16:40:48;101856.91;;;27.06;60.99
68712;BME280;55690;51.566;19.198;2023-08-12T16:44:53;101861.81;;;27.04;64.15
68712;BME280;55690;51.566;19.198;2023-08-12T16:48:59;101854.23;;;26.98;64.63
68712;BME280;55690;51.566;19.198;2023-08-12T16:53:05;101846.32;;;26.87;63.74
68712;BME280;55690;51.566;19.198;2023-08-12T16:57:11;101850.77;;;26.66;64.26
68712;BME280;55690;51.566;19.198;2023-08-12T17:01:17;101847.59;;;26.55;65.02
68712;BME280;55690;51.566;19.198;2023-08-12T17:05:23;101841.42;;;26.44;67.41
68712;BME280;55690;51.566;19.198;2023-08-12T17:09:30;101839.63;;;26.37;65.66
68712;BME280;55690;51.566;19.198;2023-08-12T17:13:36;101838.88;;;26.20;66.57
68712;BME280;55690;51.566;19.198;2023-08-12T17:17:42;101831.29;;;26.14;68.70
68712;BME280;55690;51.566;19.198;2023-08-12T17:21:48;101835.48;;;25.95;67.89
68712;BME280;55690;51.566;19.198;2023-08-12T17:25:55;101833.63;;;25.88;68.06
68712;BME280;55690;51.566;19.198;2023-08-12T17:30:00;101834.81;;;25.70;68.67
68712;BME280;55690;51.566;19.198;2023-08-12T17:34:07;101823.87;;;25.69;69.45
68712;BME280;55690;51.566;19.198;2023-08-12T17:38:13;101830.51;;;25.60;70.87
68712;BME280;55690;51.566;19.198;2023-08-12T17:42:19;101827.87;;;25.43;70.38
68712;BME280;55690;51.566;19.198;2023-08-12T17:46:25;101837.13;;;25.36;71.57
68712;BME280;55690;51.566;19.198;2023-08-12T17:50:31;101841.80;;;25.12;74.34
68712;BME280;55690;51.566;19.198;2023-08-12T17:54:37;101835.23;;;25.05;73.63
68712;BME280;55690;51.566;19.198;2023-08-12T17:58:44;101837.90;;;24.82;75.08
68712;BME280;55690;51.566;19.198;2023-08-12T18:02:50;101851.73;;;24.51;76.87
68712;BME280;55690;51.566;19.198;2023-08-12T18:06:56;101845.64;;;24.56;76.36
68712;BME280;55690;51.566;19.198;2023-08-12T18:11:02;101853.66;;;24.43;76.89
68712;BME280;55690;51.566;19.198;2023-08-12T18:15:08;101850.55;;;24.21;74.99
68712;BME280;55690;51.566;19.198;2023-08-12T18:19:14;101862.18;;;24.01;75.70
68712;BME280;55690;51.566;19.198;2023-08-12T18:23:20;101871.73;;;23.98;75.88
68712;BME280;55690;51.566;19.198;2023-08-12T18:27:27;101875.39;;;23.82;76.44
68712;BME280;55690;51.566;19.198;2023-08-12T18:31:33;101879.19;;;23.73;77.78
68712;BME280;55690;51.566;19.198;2023-08-12T18:35:39;101881.34;;;23.45;78.09
68712;BME280;55690;51.566;19.198;2023-08-12T18:39:45;101872.66;;;23.40;79.14
68712;BME280;55690;51.566;19.198;2023-08-12T18:43:51;101876.84;;;23.36;78.72
68712;BME280;55690;51.566;19.198;2023-08-12T18:47:57;101868.61;;;23.10;79.24
68712;BME280;55690;51.566;19.198;2023-08-12T18:52:04;101870.18;;;23.13;80.06
68712;BME280;55690;51.566;19.198;2023-08-12T18:56:10;101864.27;;;23.08;80.74
68712;BME280;55690;51.566;19.198;2023-08-12T19:00:17;101864.43;;;23.06;81.50
68712;BME280;55690;51.566;19.198;2023-08-12T19:04:22;101868.86;;;22.83;81.97
68712;BME280;55690;51.566;19.198;2023-08-12T19:08:28;101867.16;;;22.90;81.68
68712;BME280;55690;51.566;19.198;2023-08-12T19:12:34;101869.77;;;22.92;82.25
68712;BME280;55690;51.566;19.198;2023-08-12T19:16:41;101866.30;;;22.64;84.71
68712;BME280;55690;51.566;19.198;2023-08-12T19:20:47;101860.54;;;22.57;82.65
68712;BME280;55690;51.566;19.198;2023-08-12T19:24:53;101864.33;;;22.48;84.62
68712;BME280;55690;51.566;19.198;2023-08-12T19:28:59;101863.99;;;22.51;83.62
68712;BME280;55690;51.566;19.198;2023-08-12T19:33:05;101860.37;;;22.50;82.96
68712;BME280;55690;51.566;19.198;2023-08-12T19:37:11;101874.68;;;22.46;81.72
68712;BME280;55690;51.566;19.198;2023-08-12T19:41:18;101866.79;;;22.59;80.28
68712;BME280;55690;51.566;19.198;2023-08-12T19:45:24;101867.00;;;22.66;80.25
68712;BME280;55690;51.566;19.198;2023-08-12T19:49:30;101861.90;;;22.53;81.84
68712;BME280;55690;51.566;19.198;2023-08-12T19:53:36;101859.65;;;22.48;80.50
68712;BME280;55690;51.566;19.198;2023-08-12T19:57:42;101856.55;;;22.26;82.98
68712;BME280;55690;51.566;19.198;2023-08-12T20:01:48;101848.25;;;22.26;83.05
68712;BME280;55690;51.566;19.198;2023-08-12T20:05:54;101856.61;;;22.34;82.81
68712;BME280;55690;51.566;19.198;2023-08-12T20:10:01;101855.20;;;22.30;80.00
68712;BME280;55690;51.566;19.198;2023-08-12T20:14:07;101861.93;;;22.27;80.65
68712;BME280;55690;51.566;19.198;2023-08-12T20:18:13;101863.98;;;22.25;81.42
68712;BME280;55690;51.566;19.198;2023-08-12T20:22:19;101872.99;;;22.27;80.71
68712;BME280;55690;51.566;19.198;2023-08-12T20:26:26;101863.49;;;22.30;80.60
68712;BME280;55690;51.566;19.198;2023-08-12T20:30:32;101867.72;;;22.16;83.41
68712;BME280;55690;51.566;19.198;2023-08-12T20:34:38;101872.40;;;21.98;82.20
68712;BME280;55690;51.566;19.198;2023-08-12T20:38:44;101873.70;;;22.03;81.39
68712;BME280;55690;51.566;19.198;2023-08-12T20:42:50;101882.27;;;22.18;80.48
68712;BME280;55690;51.566;19.198;2023-08-12T20:46:56;101877.37;;;22.12;80.66
68712;BME280;55690;51.566;19.198;2023-08-12T20:51:02;101873.09;;;22.17;81.43
68712;BME280;55690;51.566;19.198;2023-08-12T20:55:08;101865.27;;;22.13;81.33
68712;BME280;55690;51.566;19.198;2023-08-12T20:59:16;101865.40;;;22.03;82.28
68712;BME280;55690;51.566;19.198;2023-08-12T21:03:21;101857.30;;;22.10;81.29
68712;BME280;55690;51.566;19.198;2023-08-12T21:07:27;101857.65;;;22.07;82.03
68712;BME280;55690;51.566;19.198;2023-08-12T21:11:33;101859.87;;;22.03;82.09
68712;BME280;55690;51.566;19.198;2023-08-12T21:15:39;101857.27;;;22.02;81.32
68712;BME280;55690;51.566;19.198;2023-08-12T21:19:45;101858.73;;;21.96;82.89
68712;BME280;55690;51.566;19.198;2023-08-12T21:23:52;101853.45;;;21.85;83.80
68712;BME280;55690;51.566;19.198;2023-08-12T21:27:58;101837.73;;;21.85;83.78